createdAt,value
2022-12-09T00:01:20.496Z,12.73
2022-12-09T00:03:48.797Z,14.15
2022-12-09T00:06:27.178Z,13.85
2022-12-09T00:09:10.211Z,10.52
2022-12-09T00:11:43.819Z,13.38
2022-12-09T00:14:14.195Z,14.32
2022-12-09T00:16:45.575Z,12.15
2022-12-09T00:19:16.374Z,10.75
2022-12-09T00:28:48.922Z,13.48
2022-12-09T00:31:30.808Z,13.05
2022-12-09T00:34:01.886Z,12.55
2022-12-09T00:36:32.933Z,13.70
2022-12-09T00:39:01.383Z,12.38
2022-12-09T00:41:29.565Z,14.52
2022-12-09T00:43:57.293Z,14.73
2022-12-09T00:46:25.376Z,16.13
2022-12-09T00:48:53.786Z,22.67
2022-12-09T00:51:23.215Z,17.10
2022-12-09T00:53:55.990Z,13.30
2022-12-09T00:56:26.353Z,12.48
2022-12-09T00:58:54.067Z,10.98
2022-12-09T01:01:22.755Z,14.63
2022-12-09T01:03:51.089Z,12.90
2022-12-09T01:06:21.244Z,17.25
2022-12-09T01:08:49.237Z,21.42
2022-12-09T01:11:22.519Z,17.90
2022-12-09T01:13:50.924Z,18.27
2022-12-09T01:16:25.067Z,23.00
2022-12-09T01:18:55.505Z,19.38
2022-12-09T01:21:24.778Z,14.57
2022-12-09T01:23:53.062Z,16.35
2022-12-09T01:26:23.179Z,18.50
2022-12-09T01:28:53.411Z,17.50
2022-12-09T01:31:26.016Z,23.48
2022-12-09T01:33:55.998Z,13.98
2022-12-09T01:38:53.273Z,12.50
2022-12-09T01:41:22.093Z,16.42
2022-12-09T01:44:11.692Z,14.18
2022-12-09T01:46:39.428Z,15.88
2022-12-09T01:49:08.834Z,16.80
2022-12-09T01:51:38.131Z,15.60
2022-12-09T01:54:05.736Z,12.45
2022-12-09T01:56:35.423Z,10.82
2022-12-09T01:59:09.191Z,16.23
2022-12-09T02:01:36.765Z,16.48
2022-12-09T02:04:05.089Z,18.33
2022-12-09T02:06:33.249Z,15.50
2022-12-09T02:09:01.556Z,12.55
2022-12-09T02:12:11.334Z,11.30
2022-12-09T02:15:17.377Z,9.60
2022-12-09T02:17:55.867Z,12.13
2022-12-09T02:20:51.466Z,11.07
2022-12-09T02:23:30.955Z,10.23
2022-12-09T02:26:26.307Z,7.45
2022-12-09T02:31:32.263Z,9.65
2022-12-09T02:34:02.564Z,11.27
2022-12-09T02:36:40.927Z,12.00
2022-12-09T02:39:10.517Z,8.73
2022-12-09T02:41:41.835Z,8.35
2022-12-09T02:44:15.878Z,11.10
2022-12-09T02:46:44.532Z,9.88
2022-12-09T02:49:14.924Z,14.73
2022-12-09T02:51:44.229Z,11.18
2022-12-09T02:54:17.370Z,12.32
2022-12-09T02:57:00.251Z,12.50
2022-12-09T02:59:29.652Z,10.90
2022-12-09T03:02:15.997Z,13.75
2022-12-09T03:04:49.068Z,9.65
2022-12-09T03:07:42.289Z,15.15
2022-12-09T03:10:16.491Z,11.68
2022-12-09T03:12:49.851Z,13.85
2022-12-09T03:15:21.756Z,15.05
2022-12-09T03:17:50.270Z,13.32
2022-12-09T03:20:26.476Z,12.40
2022-12-09T03:22:59.520Z,12.10
2022-12-09T03:25:42.310Z,18.27
2022-12-09T03:28:17.852Z,13.07
2022-12-09T03:30:46.692Z,12.88
2022-12-09T03:33:17.970Z,15.02
2022-12-09T03:35:51.884Z,14.18
2022-12-09T03:38:22.174Z,11.93
2022-12-09T03:43:30.543Z,13.13
2022-12-09T03:46:00.039Z,14.30
2022-12-09T03:48:27.981Z,14.52
2022-12-09T03:51:01.168Z,12.40
2022-12-09T03:53:36.160Z,14.93
2022-12-09T03:56:11.622Z,14.02
2022-12-09T03:58:41.281Z,16.75
2022-12-09T04:01:09.623Z,15.38
2022-12-09T04:03:38.779Z,13.45
2022-12-09T04:06:06.375Z,16.92
2022-12-09T04:08:33.840Z,16.70
2022-12-09T04:11:11.912Z,17.20
2022-12-09T04:13:42.081Z,18.20
2022-12-09T04:18:41.045Z,12.75
2022-12-09T04:21:13.976Z,14.15
2022-12-09T04:23:43.547Z,15.57
2022-12-09T04:26:16.407Z,18.17
2022-12-09T04:28:44.085Z,18.27
2022-12-09T04:31:12.902Z,16.33
2022-12-09T04:33:40.539Z,15.80
2022-12-09T04:36:10.264Z,17.30
2022-12-09T04:38:37.461Z,14.68
2022-12-09T04:41:05.029Z,12.82
2022-12-09T04:43:32.352Z,13.80
2022-12-09T04:46:06.435Z,15.27
2022-12-09T04:48:33.704Z,16.70
2022-12-09T04:51:00.840Z,12.00
2022-12-09T04:53:28.551Z,15.70
2022-12-09T04:56:00.839Z,17.80
2022-12-09T04:58:29.129Z,15.35
2022-12-09T05:00:56.682Z,17.00
2022-12-09T05:03:24.877Z,19.75
2022-12-09T05:05:52.669Z,12.52
2022-12-09T05:08:23.661Z,14.65
2022-12-09T05:10:53.935Z,18.65
2022-12-09T05:13:21.511Z,19.50
2022-12-09T05:15:48.571Z,14.95
2022-12-09T05:18:18.312Z,9.88
2022-12-09T05:20:45.568Z,18.33
2022-12-09T05:23:13.173Z,20.25
2022-12-09T05:25:40.526Z,21.17
2022-12-09T05:28:08.027Z,18.60
2022-12-09T05:30:36.967Z,17.83
2022-12-09T05:33:05.328Z,16.17
2022-12-09T05:35:32.864Z,14.70
2022-12-09T05:38:01.742Z,19.67
2022-12-09T05:40:28.719Z,14.10
2022-12-09T05:42:57.328Z,19.13
2022-12-09T05:45:25.074Z,17.58
2022-12-09T05:47:52.772Z,9.95
2022-12-09T05:50:20.967Z,15.27
2022-12-09T05:52:48.455Z,14.40
2022-12-09T05:55:18.939Z,20.27
2022-12-09T05:57:46.483Z,15.63
2022-12-09T06:00:14.763Z,13.40
2022-12-09T06:02:42.596Z,15.35
2022-12-09T06:05:11.444Z,15.57
2022-12-09T06:07:47.484Z,16.58
2022-12-09T06:10:17.526Z,17.98
2022-12-09T06:12:49.017Z,16.60
2022-12-09T06:15:21.776Z,15.82
2022-12-09T06:17:53.888Z,17.35
2022-12-09T06:20:25.135Z,15.35
2022-12-09T06:22:53.499Z,14.60
2022-12-09T06:25:21.043Z,15.30
2022-12-09T06:27:48.712Z,10.00
2022-12-09T06:30:16.283Z,15.55
2022-12-09T06:32:43.813Z,15.05
2022-12-09T06:35:12.078Z,12.38
2022-12-09T06:37:39.850Z,12.23
2022-12-09T06:40:07.423Z,15.30
2022-12-09T06:42:34.956Z,17.15
2022-12-09T06:45:03.917Z,17.63
2022-12-09T06:47:31.491Z,17.65
2022-12-09T06:50:06.576Z,19.33
2022-12-09T06:52:37.651Z,15.20
2022-12-09T06:55:07.833Z,16.45
2022-12-09T06:57:36.967Z,14.20
2022-12-09T07:00:05.646Z,13.95
2022-12-09T07:02:37.257Z,11.68
2022-12-09T07:05:05.919Z,13.90
2022-12-09T07:07:33.915Z,17.00
2022-12-09T07:10:09.806Z,8.70
2022-12-09T07:12:37.768Z,18.23
2022-12-09T07:15:06.010Z,20.35
2022-12-09T07:17:34.155Z,15.52
2022-12-09T07:20:06.637Z,14.15
2022-12-09T07:22:34.916Z,18.23
2022-12-09T07:27:33.279Z,15.73
2022-12-09T07:30:00.465Z,11.85
2022-12-09T07:32:28.140Z,13.57
2022-12-09T07:34:55.601Z,18.50
2022-12-09T07:37:23.217Z,15.65
2022-12-09T07:39:50.343Z,15.32
2022-12-09T07:42:17.423Z,17.65
2022-12-09T07:44:54.636Z,12.35
2022-12-09T07:47:22.218Z,19.42
2022-12-09T07:49:50.697Z,12.90
2022-12-09T07:52:18.674Z,17.00
2022-12-09T07:54:46.468Z,22.20
2022-12-09T07:57:14.305Z,20.52
2022-12-09T07:59:41.582Z,18.27
2022-12-09T08:02:10.097Z,15.88
2022-12-09T08:04:39.589Z,13.25
2022-12-09T08:07:22.738Z,18.58
2022-12-09T08:10:05.302Z,20.08
2022-12-09T08:12:35.569Z,14.90
2022-12-09T08:15:05.848Z,20.13
2022-12-09T08:17:43.717Z,12.00
2022-12-09T08:20:17.542Z,16.88
2022-12-09T08:22:48.110Z,24.33
2022-12-09T08:25:16.527Z,20.73
2022-12-09T08:27:46.375Z,16.98
2022-12-09T08:30:17.190Z,13.48
2022-12-09T08:32:54.814Z,15.70
2022-12-09T08:35:23.042Z,13.60
2022-12-09T08:37:52.786Z,20.58
2022-12-09T08:40:19.888Z,17.40
2022-12-09T08:42:47.897Z,23.73
2022-12-09T08:47:46.020Z,17.23
2022-12-09T08:50:14.495Z,19.15
2022-12-09T08:52:45.841Z,15.68
2022-12-09T08:55:13.320Z,19.20
2022-12-09T08:57:41.132Z,22.17
2022-12-09T09:00:09.568Z,21.42
2022-12-09T09:02:37.417Z,19.95
2022-12-09T09:05:05.513Z,19.67
2022-12-09T09:07:33.415Z,22.52
2022-12-09T09:10:01.462Z,18.55
2022-12-09T09:12:29.213Z,16.08
2022-12-09T09:14:56.739Z,18.63
2022-12-09T09:17:24.708Z,29.00
2022-12-09T09:19:52.457Z,21.70
2022-12-09T09:22:20.348Z,18.25
2022-12-09T09:24:47.740Z,19.13
2022-12-09T09:27:14.805Z,19.42
2022-12-09T09:29:41.919Z,19.30
2022-12-09T09:32:09.235Z,18.85
2022-12-09T09:34:37.011Z,18.73
2022-12-09T09:37:04.273Z,16.65
2022-12-09T09:39:32.176Z,18.20
2022-12-09T09:42:08.038Z,22.55
2022-12-09T09:44:40.211Z,17.88
2022-12-09T09:47:29.425Z,19.45
2022-12-09T09:50:01.720Z,15.93
2022-12-09T09:52:30.535Z,15.55
2022-12-09T09:54:58.225Z,15.73
2022-12-09T09:57:35.358Z,14.30
2022-12-09T10:00:11.463Z,17.55
2022-12-09T10:03:01.141Z,14.43
2022-12-09T10:05:30.916Z,16.05
2022-12-09T10:10:59.565Z,15.13
2022-12-09T10:13:50.517Z,14.13
2022-12-09T10:16:30.822Z,15.48
2022-12-09T10:19:32.755Z,14.50
2022-12-09T10:22:21.197Z,14.80
2022-12-09T10:27:34.250Z,13.63
2022-12-09T10:30:10.940Z,14.30
2022-12-09T10:32:39.515Z,13.82
2022-12-09T10:35:25.769Z,14.90
2022-12-09T10:37:56.414Z,13.45
2022-12-09T10:40:36.939Z,12.95
2022-12-09T10:43:42.476Z,12.18
2022-12-09T10:46:19.176Z,10.75
2022-12-09T10:48:47.963Z,13.50
2022-12-09T10:51:21.660Z,12.82
2022-12-09T10:54:16.547Z,12.35
2022-12-09T11:04:42.086Z,12.88
2022-12-09T11:07:12.971Z,11.75
2022-12-09T11:09:43.832Z,13.25
2022-12-09T11:12:38.517Z,11.50
2022-12-09T11:15:26.407Z,11.73
2022-12-09T11:18:04.398Z,12.13
2022-12-09T11:20:33.914Z,12.82
2022-12-09T11:26:06.904Z,11.80
2022-12-09T11:28:39.582Z,11.52
2022-12-09T11:31:29.941Z,10.55
2022-12-09T11:34:07.403Z,10.70
2022-12-09T11:36:40.391Z,9.95
2022-12-09T11:39:16.348Z,13.52
2022-12-09T11:42:16.432Z,12.50
2022-12-09T11:44:58.360Z,12.80
2022-12-09T11:47:36.410Z,15.82
2022-12-09T11:50:22.618Z,12.05
2022-12-09T11:53:11.193Z,12.85
2022-12-09T11:55:44.328Z,14.30
2022-12-09T11:58:27.933Z,10.40
2022-12-09T12:01:06.120Z,11.57
2022-12-09T12:03:53.753Z,12.60
2022-12-09T12:06:27.793Z,13.10
2022-12-09T12:09:03.012Z,12.52
2022-12-09T12:11:40.338Z,14.15
2022-12-09T12:14:29.653Z,13.98
2022-12-09T12:17:19.807Z,12.50
2022-12-09T12:19:50.841Z,14.85
2022-12-09T12:22:35.669Z,15.70
2022-12-09T12:25:21.334Z,16.90
2022-12-09T12:27:59.716Z,12.43
2022-12-09T12:31:04.777Z,14.23
2022-12-09T12:34:07.723Z,15.50
2022-12-09T12:37:06.288Z,17.30
2022-12-09T12:39:42.408Z,16.70
2022-12-09T12:42:30.732Z,14.95
2022-12-09T12:45:42.511Z,13.35
2022-12-09T12:48:26.885Z,16.13
2022-12-09T12:51:16.846Z,16.75
2022-12-09T12:53:59.922Z,15.02
2022-12-09T12:56:43.220Z,19.15
2022-12-09T12:59:13.032Z,16.50
2022-12-09T13:02:08.921Z,16.48
2022-12-09T13:04:43.928Z,18.95
2022-12-09T13:07:32.620Z,18.75
2022-12-09T13:12:53.461Z,17.05
2022-12-09T13:15:41.988Z,20.88
2022-12-09T13:18:14.253Z,18.13
2022-12-09T13:20:51.334Z,16.35
2022-12-09T13:23:45.052Z,19.25
2022-12-09T13:26:46.546Z,18.15
2022-12-09T13:29:36.162Z,18.20
2022-12-09T13:32:24.241Z,20.23
2022-12-09T13:34:55.495Z,15.07
2022-12-09T13:37:55.061Z,20.20
2022-12-09T13:40:24.670Z,19.17
2022-12-09T13:43:03.611Z,16.98
2022-12-09T13:45:46.258Z,16.27
2022-12-09T13:48:16.868Z,19.35
2022-12-09T13:50:51.410Z,25.10
2022-12-09T13:53:21.042Z,16.20
2022-12-09T13:56:08.846Z,19.85
2022-12-09T13:59:06.345Z,17.55
2022-12-09T14:01:51.885Z,23.02
2022-12-09T14:04:29.162Z,18.00
2022-12-09T14:07:18.446Z,18.08
2022-12-09T14:09:46.824Z,19.92
2022-12-09T14:12:34.101Z,20.55
2022-12-09T14:15:01.555Z,19.13
2022-12-09T14:17:29.238Z,18.85
2022-12-09T14:20:20.671Z,17.88
2022-12-09T14:23:06.391Z,19.33
2022-12-09T14:25:35.989Z,23.33
2022-12-09T14:28:12.129Z,14.77
2022-12-09T14:30:55.640Z,17.23
2022-12-09T14:33:42.866Z,16.30
2022-12-09T14:36:15.808Z,19.08
2022-12-09T14:39:23.548Z,21.73
2022-12-09T14:41:58.595Z,16.58
2022-12-09T14:44:44.099Z,19.88
2022-12-09T14:47:24.904Z,18.75
2022-12-09T14:49:53.934Z,18.77
2022-12-09T14:52:30.571Z,18.45
2022-12-09T14:55:04.951Z,14.27
2022-12-09T14:57:46.574Z,17.40
2022-12-09T15:00:28.029Z,16.15
2022-12-09T15:03:31.415Z,19.08
2022-12-09T15:06:03.847Z,19.80
2022-12-09T15:08:37.196Z,15.98
2022-12-09T15:11:13.122Z,16.20
2022-12-09T15:13:44.298Z,17.45
2022-12-09T15:16:15.032Z,23.60
2022-12-09T15:18:44.527Z,18.83
2022-12-09T15:21:28.559Z,18.23
2022-12-09T15:23:56.042Z,21.40
2022-12-09T15:26:29.315Z,19.35
2022-12-09T15:28:59.366Z,18.58
2022-12-09T15:31:28.813Z,20.38
2022-12-09T15:34:07.961Z,17.65
2022-12-09T15:36:39.912Z,15.45
2022-12-09T15:39:27.924Z,18.85
2022-12-09T15:42:07.146Z,16.73
2022-12-09T15:44:44.224Z,19.50
2022-12-09T15:47:20.524Z,13.57
2022-12-09T15:50:03.775Z,17.58
2022-12-09T15:52:40.409Z,15.23
2022-12-09T15:55:12.380Z,15.20
2022-12-09T15:57:40.300Z,15.15
2022-12-09T16:00:08.111Z,20.35
2022-12-09T16:02:38.234Z,22.52
2022-12-09T16:05:08.340Z,18.05
2022-12-09T16:07:35.920Z,16.05
2022-12-09T16:10:15.428Z,21.65
2022-12-09T16:12:43.961Z,17.17
2022-12-09T16:15:14.199Z,16.88
2022-12-09T16:17:53.987Z,20.70
2022-12-09T16:20:42.514Z,12.98
2022-12-09T16:23:24.885Z,16.42
2022-12-09T16:25:55.788Z,17.73
2022-12-09T16:28:25.983Z,14.63
2022-12-09T16:31:02.045Z,14.35
2022-12-09T16:33:34.248Z,16.95
2022-12-09T16:36:04.778Z,15.80
2022-12-09T16:38:38.740Z,14.68
2022-12-09T16:41:11.476Z,15.75
2022-12-09T16:43:55.449Z,21.17
2022-12-09T16:46:29.120Z,19.63
2022-12-09T16:48:59.260Z,18.35
2022-12-09T16:51:30.073Z,20.02
2022-12-09T16:53:58.691Z,16.05
2022-12-09T16:56:28.294Z,21.10
2022-12-09T16:58:57.599Z,18.38
2022-12-09T17:01:35.182Z,16.77
2022-12-09T17:04:09.486Z,16.65
2022-12-09T17:06:36.465Z,18.45
2022-12-09T17:09:03.733Z,19.17
2022-12-09T17:11:30.697Z,18.77
2022-12-09T17:13:59.057Z,21.35
2022-12-09T17:16:26.873Z,16.90
2022-12-09T17:18:54.177Z,18.52
2022-12-09T17:21:21.241Z,15.85
2022-12-09T17:23:48.234Z,19.23
2022-12-09T17:26:17.131Z,21.08
2022-12-09T17:28:45.809Z,20.73
2022-12-09T17:31:23.310Z,20.50
2022-12-09T17:33:51.086Z,18.10
2022-12-09T17:36:19.281Z,18.95
2022-12-09T17:38:46.326Z,22.25
2022-12-09T17:41:18.712Z,20.55
2022-12-09T17:43:46.090Z,20.70
2022-12-09T17:46:13.220Z,24.67
2022-12-09T17:48:41.806Z,21.25
2022-12-09T17:51:14.518Z,22.02
2022-12-09T17:53:42.784Z,17.38
2022-12-09T17:56:15.538Z,21.67
2022-12-09T17:58:43.281Z,27.48
2022-12-09T18:01:20.739Z,27.20
2022-12-09T18:03:56.173Z,26.88
2022-12-09T18:06:28.396Z,24.73
2022-12-09T18:08:55.797Z,36.55
2022-12-09T18:11:23.445Z,29.58
2022-12-09T18:13:51.331Z,23.58
2022-12-09T18:16:19.397Z,24.77
2022-12-09T18:18:46.993Z,25.63
2022-12-09T18:21:16.193Z,22.33
2022-12-09T18:23:44.026Z,23.25
2022-12-09T18:26:16.793Z,18.42
2022-12-09T18:28:43.837Z,22.27
2022-12-09T18:31:16.360Z,20.00
2022-12-09T18:33:43.779Z,24.38
2022-12-09T18:36:13.443Z,23.40
2022-12-09T18:38:41.144Z,24.92
2022-12-09T18:41:19.872Z,24.45
2022-12-09T18:43:49.499Z,26.70
2022-12-09T18:46:25.146Z,22.95
2022-12-09T18:49:17.037Z,25.50
2022-12-09T18:51:45.281Z,20.40
2022-12-09T18:54:17.748Z,22.13
2022-12-09T18:56:45.397Z,24.95
2022-12-09T18:59:13.210Z,22.23
2022-12-09T19:01:46.086Z,28.70
2022-12-09T19:04:19.657Z,23.23
2022-12-09T19:06:48.295Z,21.35
2022-12-09T19:09:18.249Z,23.25
2022-12-09T19:11:46.620Z,28.73
2022-12-09T19:14:15.972Z,26.60
2022-12-09T19:16:44.415Z,21.67
2022-12-09T19:19:16.777Z,25.40
2022-12-09T19:21:43.800Z,27.40
2022-12-09T19:24:18.044Z,22.27
2022-12-09T19:26:45.801Z,22.63
2022-12-09T19:29:14.216Z,26.10
2022-12-09T19:31:47.319Z,27.45
2022-12-09T19:34:18.563Z,24.77
2022-12-09T19:36:47.609Z,30.88
2022-12-09T19:39:15.605Z,26.45
2022-12-09T19:41:43.480Z,18.15
2022-12-09T19:44:21.698Z,23.55
2022-12-09T19:46:58.375Z,27.08
2022-12-09T19:49:25.840Z,28.42
2022-12-09T19:51:53.531Z,25.17
2022-12-09T19:54:26.756Z,26.05
2022-12-09T19:56:56.655Z,27.55
2022-12-09T19:59:23.744Z,25.83
2022-12-09T20:01:51.529Z,23.63
2022-12-09T20:07:09.037Z,24.85
2022-12-09T20:09:37.437Z,20.92
2022-12-09T20:12:04.921Z,22.75
2022-12-09T20:14:32.288Z,27.90
2022-12-09T20:16:59.856Z,23.02
2022-12-09T20:19:27.717Z,21.42
2022-12-09T20:21:54.557Z,17.05
2022-12-09T20:24:21.565Z,26.60
2022-12-09T20:26:48.536Z,19.55
2022-12-09T20:29:16.586Z,24.20
2022-12-09T20:31:44.041Z,21.63
2022-12-09T20:34:16.692Z,23.23
2022-12-09T20:36:45.061Z,22.95
2022-12-09T20:39:18.015Z,19.20
2022-12-09T20:41:45.772Z,22.90
2022-12-09T20:44:14.092Z,19.90
2022-12-09T20:46:45.434Z,20.60
2022-12-09T20:49:12.318Z,19.83
2022-12-09T20:51:40.412Z,19.02
2022-12-09T20:54:09.754Z,17.73
2022-12-09T20:56:36.935Z,17.45
2022-12-09T20:59:04.857Z,19.98
2022-12-09T21:01:34.781Z,24.50
2022-12-09T21:04:04.490Z,19.30
2022-12-09T21:06:37.626Z,23.50
2022-12-09T21:09:08.580Z,20.50
2022-12-09T21:14:09.588Z,18.08
2022-12-09T21:16:41.791Z,19.35
2022-12-09T21:19:14.233Z,20.90
2022-12-09T21:21:47.013Z,15.35
2022-12-09T21:24:16.055Z,23.67
2022-12-09T21:27:08.724Z,20.90
2022-12-09T21:29:37.216Z,27.38
2022-12-09T21:33:10.726Z,18.00
2022-12-09T21:36:21.262Z,18.83
2022-12-09T21:39:05.650Z,20.45
2022-12-09T21:41:45.181Z,21.02
2022-12-09T21:44:18.661Z,26.23
2022-12-09T21:47:03.175Z,22.13
2022-12-09T21:49:59.539Z,19.50
2022-12-09T21:55:46.214Z,18.73
2022-12-09T22:01:23.444Z,19.75
2022-12-09T22:03:55.978Z,20.33
2022-12-09T22:06:47.857Z,19.75
2022-12-09T22:09:24.015Z,21.25
2022-12-09T22:14:33.239Z,22.60
2022-12-09T22:17:47.207Z,22.27
2022-12-09T22:23:14.855Z,25.30
2022-12-09T22:25:42.213Z,20.80
2022-12-09T22:28:11.133Z,21.40
2022-12-09T22:30:38.598Z,27.38
2022-12-09T22:33:10.194Z,17.38
2022-12-09T22:40:06.246Z,20.27
2022-12-09T22:43:06.830Z,18.95
2022-12-09T23:01:24.484Z,24.40
2022-12-09T23:20:50.136Z,24.52
2022-12-09T23:23:26.049Z,24.73
2022-12-09T23:29:21.638Z,28.83
2022-12-09T23:32:25.410Z,27.17
2022-12-09T23:38:14.416Z,27.17
2022-12-09T23:40:54.671Z,25.27
2022-12-09T23:46:43.871Z,31.48
2022-12-09T23:49:19.084Z,30.42
2022-12-09T23:51:56.021Z,27.30
2022-12-09T23:54:26.788Z,30.45
2022-12-09T23:56:59.598Z,31.33
